sensor_id;sensor_type;location;lat;lon;timestamp;temperature;humidity
2523;DHT22;1272;53.332;9.860;2023-08-21T00:01:21;17.20;99.90
2523;DHT22;1272;53.332;9.860;2023-08-21T00:03:48;17.20;99.90
2523;DHT22;1272;53.332;9.860;2023-08-21T00:06:13;17.20;99.90
2523;DHT22;1272;53.332;9.860;2023-08-21T00:08:39;17.10;99.90
2523;DHT22;1272;53.332;9.860;2023-08-21T00:11:05;17.10;99.90
2523;DHT22;1272;53.332;9.860;2023-08-21T00:13:30;17.10;99.90
2523;DHT22;1272;53.332;9.860;2023-08-21T00:15:56;17.10;99.90
2523;DHT22;1272;53.332;9.860;2023-08-21T00:18:22;17.00;99.90
2523;DHT22;1272;53.332;9.860;2023-08-21T00:20:48;17.00;99.90
2523;DHT22;1272;53.332;9.860;2023-08-21T00:23:13;17.00;99.90
2523;DHT22;1272;53.332;9.860;2023-08-21T00:25:39;17.00;99.90
2523;DHT22;1272;53.332;9.860;2023-08-21T00:28:05;16.90;99.90
2523;DHT22;1272;53.332;9.860;2023-08-21T00:30:31;16.90;99.90
2523;DHT22;1272;53.332;9.860;2023-08-21T00:32:56;16.90;99.90
2523;DHT22;1272;53.332;9.860;2023-08-21T00:35:22;16.90;99.90
2523;DHT22;1272;53.332;9.860;2023-08-21T00:37:48;16.90;99.90
2523;DHT22;1272;53.332;9.860;2023-08-21T00:40:13;16.80;99.90
2523;DHT22;1272;53.332;9.860;2023-08-21T00:42:39;16.80;99.90
2523;DHT22;1272;53.332;9.860;2023-08-21T00:45:05;16.80;99.90
2523;DHT22;1272;53.332;9.860;2023-08-21T00:47:34;16.80;99.90
2523;DHT22;1272;53.332;9.860;2023-08-21T00:50:00;16.70;99.90
2523;DHT22;1272;53.332;9.860;2023-08-21T00:52:27;16.60;99.90
2523;DHT22;1272;53.332;9.860;2023-08-21T00:54:53;16.60;99.90
2523;DHT22;1272;53.332;9.860;2023-08-21T00:57:20;16.50;99.90
2523;DHT22;1272;53.332;9.860;2023-08-21T00:59:47;16.50;99.90
2523;DHT22;1272;53.332;9.860;2023-08-21T01:02:12;16.40;99.90
2523;DHT22;1272;53.332;9.860;2023-08-21T01:04:38;16.40;99.90
2523;DHT22;1272;53.332;9.860;2023-08-21T01:07:04;16.40;99.90
2523;DHT22;1272;53.332;9.860;2023-08-21T01:09:58;16.40;99.90
2523;DHT22;1272;53.332;9.860;2023-08-21T01:15:06;16.40;99.90
2523;DHT22;1272;53.332;9.860;2023-08-21T01:17:34;16.40;99.90
2523;DHT22;1272;53.332;9.860;2023-08-21T01:20:02;16.40;99.90
2523;DHT22;1272;53.332;9.860;2023-08-21T01:22:38;16.30;99.90
2523;DHT22;1272;53.332;9.860;2023-08-21T01:25:05;16.30;99.90
2523;DHT22;1272;53.332;9.860;2023-08-21T01:27:31;16.30;99.90
2523;DHT22;1272;53.332;9.860;2023-08-21T01:29:58;16.20;99.90
2523;DHT22;1272;53.332;9.860;2023-08-21T01:32:29;16.20;99.90
2523;DHT22;1272;53.332;9.860;2023-08-21T01:34:58;16.30;99.90
2523;DHT22;1272;53.332;9.860;2023-08-21T01:37:26;16.20;99.90
2523;DHT22;1272;53.332;9.860;2023-08-21T01:39:52;16.20;99.90
2523;DHT22;1272;53.332;9.860;2023-08-21T01:42:17;16.20;99.90
2523;DHT22;1272;53.332;9.860;2023-08-21T01:44:43;16.20;99.90
2523;DHT22;1272;53.332;9.860;2023-08-21T01:47:12;16.20;99.90
2523;DHT22;1272;53.332;9.860;2023-08-21T01:49:37;16.10;99.90
2523;DHT22;1272;53.332;9.860;2023-08-21T01:52:03;16.10;99.90
2523;DHT22;1272;53.332;9.860;2023-08-21T01:54:29;16.00;99.90
2523;DHT22;1272;53.332;9.860;2023-08-21T01:56:55;16.00;99.90
2523;DHT22;1272;53.332;9.860;2023-08-21T01:59:21;15.90;99.90
2523;DHT22;1272;53.332;9.860;2023-08-21T02:01:46;15.90;99.90
2523;DHT22;1272;53.332;9.860;2023-08-21T02:04:12;15.90;99.90
2523;DHT22;1272;53.332;9.860;2023-08-21T02:06:38;15.90;99.90
2523;DHT22;1272;53.332;9.860;2023-08-21T02:09:03;15.90;99.90
2523;DHT22;1272;53.332;9.860;2023-08-21T02:11:29;15.90;99.90
2523;DHT22;1272;53.332;9.860;2023-08-21T02:13:55;15.90;99.90
2523;DHT22;1272;53.332;9.860;2023-08-21T02:16:20;15.90;99.90
2523;DHT22;1272;53.332;9.860;2023-08-21T02:18:47;15.80;99.90
2523;DHT22;1272;53.332;9.860;2023-08-21T02:21:13;15.80;99.90
2523;DHT22;1272;53.332;9.860;2023-08-21T02:23:39;15.70;99.90
2523;DHT22;1272;53.332;9.860;2023-08-21T02:26:04;15.70;99.90
2523;DHT22;1272;53.332;9.860;2023-08-21T02:28:30;15.70;99.90
2523;DHT22;1272;53.332;9.860;2023-08-21T02:30:56;15.70;99.90
2523;DHT22;1272;53.332;9.860;2023-08-21T02:33:21;15.60;99.90
2523;DHT22;1272;53.332;9.860;2023-08-21T02:35:47;15.60;99.90
2523;DHT22;1272;53.332;9.860;2023-08-21T02:38:13;15.50;99.90
2523;DHT22;1272;53.332;9.860;2023-08-21T02:40:38;15.40;99.90
2523;DHT22;1272;53.332;9.860;2023-08-21T02:43:04;15.30;99.90
2523;DHT22;1272;53.332;9.860;2023-08-21T02:45:30;15.30;99.90
2523;DHT22;1272;53.332;9.860;2023-08-21T02:47:56;15.30;99.90
2523;DHT22;1272;53.332;9.860;2023-08-21T02:50:22;15.30;99.90
2523;DHT22;1272;53.332;9.860;2023-08-21T02:52:47;15.30;99.90
2523;DHT22;1272;53.332;9.860;2023-08-21T02:55:13;15.30;99.90
2523;DHT22;1272;53.332;9.860;2023-08-21T02:57:39;15.30;99.90
2523;DHT22;1272;53.332;9.860;2023-08-21T03:00:05;15.30;99.90
2523;DHT22;1272;53.332;9.860;2023-08-21T03:02:33;15.30;99.90
2523;DHT22;1272;53.332;9.860;2023-08-21T03:04:59;15.30;99.90
2523;DHT22;1272;53.332;9.860;2023-08-21T03:07:24;15.30;99.90
2523;DHT22;1272;53.332;9.860;2023-08-21T03:09:50;15.20;99.90
2523;DHT22;1272;53.332;9.860;2023-08-21T03:12:16;15.30;99.90
2523;DHT22;1272;53.332;9.860;2023-08-21T03:14:42;15.30;99.90
2523;DHT22;1272;53.332;9.860;2023-08-21T03:17:08;15.30;99.90
2523;DHT22;1272;53.332;9.860;2023-08-21T03:19:34;15.20;99.90
2523;DHT22;1272;53.332;9.860;2023-08-21T03:22:00;15.20;99.90
2523;DHT22;1272;53.332;9.860;2023-08-21T03:24:25;15.20;99.90
2523;DHT22;1272;53.332;9.860;2023-08-21T03:26:51;15.20;99.90
2523;DHT22;1272;53.332;9.860;2023-08-21T03:29:17;15.10;99.90
2523;DHT22;1272;53.332;9.860;2023-08-21T03:31:42;15.10;99.90
2523;DHT22;1272;53.332;9.860;2023-08-21T03:34:08;15.00;99.90
2523;DHT22;1272;53.332;9.860;2023-08-21T03:36:34;15.00;99.90
2523;DHT22;1272;53.332;9.860;2023-08-21T03:39:03;14.90;99.90
2523;DHT22;1272;53.332;9.860;2023-08-21T03:41:31;14.90;99.90
2523;DHT22;1272;53.332;9.860;2023-08-21T03:43:57;14.90;99.90
2523;DHT22;1272;53.332;9.860;2023-08-21T03:46:23;14.90;99.90
2523;DHT22;1272;53.332;9.860;2023-08-21T03:48:50;14.90;99.90
2523;DHT22;1272;53.332;9.860;2023-08-21T03:51:16;14.90;99.90
2523;DHT22;1272;53.332;9.860;2023-08-21T03:53:41;14.80;99.90
2523;DHT22;1272;53.332;9.860;2023-08-21T03:56:07;14.80;99.90
2523;DHT22;1272;53.332;9.860;2023-08-21T03:58:33;14.80;99.90
2523;DHT22;1272;53.332;9.860;2023-08-21T04:00:59;14.80;99.90
2523;DHT22;1272;53.332;9.860;2023-08-21T04:03:25;14.80;99.90
2523;DHT22;1272;53.332;9.860;2023-08-21T04:05:53;14.70;99.90
2523;DHT22;1272;53.332;9.860;2023-08-21T04:08:19;14.70;99.90
2523;DHT22;1272;53.332;9.860;2023-08-21T04:10:44;14.70;99.90
2523;DHT22;1272;53.332;9.860;2023-08-21T04:13:10;14.70;99.90
2523;DHT22;1272;53.332;9.860;2023-08-21T04:15:36;14.70;99.90
2523;DHT22;1272;53.332;9.860;2023-08-21T04:18:01;14.60;99.90
2523;DHT22;1272;53.332;9.860;2023-08-21T04:20:27;14.60;99.90
2523;DHT22;1272;53.332;9.860;2023-08-21T04:22:53;14.60;99.90
2523;DHT22;1272;53.332;9.860;2023-08-21T04:25:18;14.60;99.90
2523;DHT22;1272;53.332;9.860;2023-08-21T04:27:44;14.70;99.90
2523;DHT22;1272;53.332;9.860;2023-08-21T04:30:11;14.70;99.90
2523;DHT22;1272;53.332;9.860;2023-08-21T04:32:36;14.70;99.90
2523;DHT22;1272;53.332;9.860;2023-08-21T04:35:02;14.70;99.90
2523;DHT22;1272;53.332;9.860;2023-08-21T04:37:28;14.60;99.90
2523;DHT22;1272;53.332;9.860;2023-08-21T04:39:54;14.60;99.90
2523;DHT22;1272;53.332;9.860;2023-08-21T04:42:21;14.50;99.90
2523;DHT22;1272;53.332;9.860;2023-08-21T04:44:46;14.50;99.90
2523;DHT22;1272;53.332;9.860;2023-08-21T04:47:25;14.50;99.90
2523;DHT22;1272;53.332;9.860;2023-08-21T04:49:52;14.50;99.90
2523;DHT22;1272;53.332;9.860;2023-08-21T04:52:19;14.50;99.90
2523;DHT22;1272;53.332;9.860;2023-08-21T04:54:45;14.50;99.90
2523;DHT22;1272;53.332;9.860;2023-08-21T04:57:10;14.50;99.90
2523;DHT22;1272;53.332;9.860;2023-08-21T04:59:36;14.60;99.90
2523;DHT22;1272;53.332;9.860;2023-08-21T05:02:02;14.60;99.90
2523;DHT22;1272;53.332;9.860;2023-08-21T05:04:28;14.60;99.90
2523;DHT22;1272;53.332;9.860;2023-08-21T05:06:54;14.60;99.90
2523;DHT22;1272;53.332;9.860;2023-08-21T05:09:19;14.70;99.90
2523;DHT22;1272;53.332;9.860;2023-08-21T05:11:45;14.70;99.90
2523;DHT22;1272;53.332;9.860;2023-08-21T05:14:11;14.70;99.90
2523;DHT22;1272;53.332;9.860;2023-08-21T05:16:37;14.70;99.90
2523;DHT22;1272;53.332;9.860;2023-08-21T05:19:02;14.80;99.90
2523;DHT22;1272;53.332;9.860;2023-08-21T05:21:28;14.80;99.90
2523;DHT22;1272;53.332;9.860;2023-08-21T05:23:54;14.90;99.90
2523;DHT22;1272;53.332;9.860;2023-08-21T05:26:20;15.00;99.90
2523;DHT22;1272;53.332;9.860;2023-08-21T05:28:46;15.00;99.90
2523;DHT22;1272;53.332;9.860;2023-08-21T05:31:12;15.10;99.90
2523;DHT22;1272;53.332;9.860;2023-08-21T05:33:37;15.10;99.90
2523;DHT22;1272;53.332;9.860;2023-08-21T05:36:04;15.20;99.90
2523;DHT22;1272;53.332;9.860;2023-08-21T05:38:31;15.20;99.90
2523;DHT22;1272;53.332;9.860;2023-08-21T05:40:56;15.30;99.90
2523;DHT22;1272;53.332;9.860;2023-08-21T05:43:24;15.30;99.90
2523;DHT22;1272;53.332;9.860;2023-08-21T05:45:50;15.40;99.90
2523;DHT22;1272;53.332;9.860;2023-08-21T05:48:16;15.40;99.90
2523;DHT22;1272;53.332;9.860;2023-08-21T05:50:44;15.50;99.90
2523;DHT22;1272;53.332;9.860;2023-08-21T05:53:10;15.60;99.90
2523;DHT22;1272;53.332;9.860;2023-08-21T05:55:38;15.60;99.90
2523;DHT22;1272;53.332;9.860;2023-08-21T05:58:04;15.70;99.90
2523;DHT22;1272;53.332;9.860;2023-08-21T06:00:30;15.70;99.90
2523;DHT22;1272;53.332;9.860;2023-08-21T06:02:55;15.80;99.90
2523;DHT22;1272;53.332;9.860;2023-08-21T06:05:21;15.90;99.90
2523;DHT22;1272;53.332;9.860;2023-08-21T06:07:47;15.90;99.90
2523;DHT22;1272;53.332;9.860;2023-08-21T06:10:12;16.00;99.90
2523;DHT22;1272;53.332;9.860;2023-08-21T06:12:41;16.10;99.90
2523;DHT22;1272;53.332;9.860;2023-08-21T06:15:07;16.10;99.90
2523;DHT22;1272;53.332;9.860;2023-08-21T06:17:36;16.20;99.90
2523;DHT22;1272;53.332;9.860;2023-08-21T06:20:02;16.20;99.90
2523;DHT22;1272;53.332;9.860;2023-08-21T06:22:31;16.40;99.90
2523;DHT22;1272;53.332;9.860;2023-08-21T06:24:56;16.50;99.90
2523;DHT22;1272;53.332;9.860;2023-08-21T06:27:22;16.60;99.90
2523;DHT22;1272;53.332;9.860;2023-08-21T06:29:48;16.70;99.90
2523;DHT22;1272;53.332;9.860;2023-08-21T06:32:14;16.80;99.90
2523;DHT22;1272;53.332;9.860;2023-08-21T06:34:39;16.80;99.90
2523;DHT22;1272;53.332;9.860;2023-08-21T06:37:05;16.90;99.90
2523;DHT22;1272;53.332;9.860;2023-08-21T06:39:31;16.90;99.90
2523;DHT22;1272;53.332;9.860;2023-08-21T06:41:57;16.90;99.90
2523;DHT22;1272;53.332;9.860;2023-08-21T06:44:22;17.00;99.90
2523;DHT22;1272;53.332;9.860;2023-08-21T06:46:48;17.00;99.90
2523;DHT22;1272;53.332;9.860;2023-08-21T06:49:14;17.10;99.90
2523;DHT22;1272;53.332;9.860;2023-08-21T06:51:39;17.20;99.90
2523;DHT22;1272;53.332;9.860;2023-08-21T06:54:05;17.20;99.90
2523;DHT22;1272;53.332;9.860;2023-08-21T06:56:31;17.30;99.90
2523;DHT22;1272;53.332;9.860;2023-08-21T06:58:57;17.40;99.90
2523;DHT22;1272;53.332;9.860;2023-08-21T07:01:23;17.40;99.90
2523;DHT22;1272;53.332;9.860;2023-08-21T07:03:49;17.50;99.90
2523;DHT22;1272;53.332;9.860;2023-08-21T07:06:14;17.60;99.90
2523;DHT22;1272;53.332;9.860;2023-08-21T07:08:40;17.60;99.90
2523;DHT22;1272;53.332;9.860;2023-08-21T07:11:06;17.70;99.90
2523;DHT22;1272;53.332;9.860;2023-08-21T07:13:36;17.80;99.90
2523;DHT22;1272;53.332;9.860;2023-08-21T07:16:02;17.80;99.90
2523;DHT22;1272;53.332;9.860;2023-08-21T07:18:32;17.90;99.90
2523;DHT22;1272;53.332;9.860;2023-08-21T07:20:59;17.90;99.90
2523;DHT22;1272;53.332;9.860;2023-08-21T07:23:25;18.00;99.90
2523;DHT22;1272;53.332;9.860;2023-08-21T07:25:51;18.10;99.90
2523;DHT22;1272;53.332;9.860;2023-08-21T07:28:16;18.10;99.90
2523;DHT22;1272;53.332;9.860;2023-08-21T07:30:42;18.10;99.90
2523;DHT22;1272;53.332;9.860;2023-08-21T07:33:08;18.20;99.90
2523;DHT22;1272;53.332;9.860;2023-08-21T07:35:34;18.30;99.90
2523;DHT22;1272;53.332;9.860;2023-08-21T07:38:01;18.30;99.90
2523;DHT22;1272;53.332;9.860;2023-08-21T07:40:27;18.50;99.90
2523;DHT22;1272;53.332;9.860;2023-08-21T07:42:53;18.50;99.90
2523;DHT22;1272;53.332;9.860;2023-08-21T07:45:19;18.60;99.90
2523;DHT22;1272;53.332;9.860;2023-08-21T07:47:44;18.60;99.90
2523;DHT22;1272;53.332;9.860;2023-08-21T07:50:10;18.60;99.90
2523;DHT22;1272;53.332;9.860;2023-08-21T07:52:36;18.70;99.90
2523;DHT22;1272;53.332;9.860;2023-08-21T07:55:03;18.80;99.90
2523;DHT22;1272;53.332;9.860;2023-08-21T07:57:29;18.80;99.90
2523;DHT22;1272;53.332;9.860;2023-08-21T07:59:56;18.90;99.90
2523;DHT22;1272;53.332;9.860;2023-08-21T08:02:22;19.00;99.90
2523;DHT22;1272;53.332;9.860;2023-08-21T08:04:48;19.00;99.90
2523;DHT22;1272;53.332;9.860;2023-08-21T08:07:14;19.10;99.90
2523;DHT22;1272;53.332;9.860;2023-08-21T08:09:39;19.10;99.90
2523;DHT22;1272;53.332;9.860;2023-08-21T08:12:05;19.10;99.90
2523;DHT22;1272;53.332;9.860;2023-08-21T08:14:31;19.10;99.90
2523;DHT22;1272;53.332;9.860;2023-08-21T08:16:57;19.20;99.90
2523;DHT22;1272;53.332;9.860;2023-08-21T08:19:23;19.20;99.90
2523;DHT22;1272;53.332;9.860;2023-08-21T08:21:49;19.40;99.90
2523;DHT22;1272;53.332;9.860;2023-08-21T08:24:14;19.40;99.90
2523;DHT22;1272;53.332;9.860;2023-08-21T08:26:40;19.50;99.90
2523;DHT22;1272;53.332;9.860;2023-08-21T08:29:08;19.60;55.40
2523;DHT22;1272;53.332;9.860;2023-08-21T08:31:34;19.60;11.90
2523;DHT22;1272;53.332;9.860;2023-08-21T08:34:00;19.60;10.80
2523;DHT22;1272;53.332;9.860;2023-08-21T08:36:25;19.70;62.90
2523;DHT22;1272;53.332;9.860;2023-08-21T08:38:51;19.80;99.90
2523;DHT22;1272;53.332;9.860;2023-08-21T08:41:33;19.90;1.00
2523;DHT22;1272;53.332;9.860;2023-08-21T08:44:04;20.00;1.00
2523;DHT22;1272;53.332;9.860;2023-08-21T08:46:30;20.00;99.90
2523;DHT22;1272;53.332;9.860;2023-08-21T08:48:56;20.10;99.90
2523;DHT22;1272;53.332;9.860;2023-08-21T08:51:28;20.10;99.90
2523;DHT22;1272;53.332;9.860;2023-08-21T08:53:57;20.20;99.90
2523;DHT22;1272;53.332;9.860;2023-08-21T08:56:23;20.30;99.90
2523;DHT22;1272;53.332;9.860;2023-08-21T08:58:49;20.40;99.90
2523;DHT22;1272;53.332;9.860;2023-08-21T09:01:15;20.40;99.90
2523;DHT22;1272;53.332;9.860;2023-08-21T09:03:41;20.50;1.00
2523;DHT22;1272;53.332;9.860;2023-08-21T09:06:06;20.60;99.90
2523;DHT22;1272;53.332;9.860;2023-08-21T09:08:32;20.60;99.90
2523;DHT22;1272;53.332;9.860;2023-08-21T09:11:01;20.60;1.00
2523;DHT22;1272;53.332;9.860;2023-08-21T09:13:30;20.60;99.90
2523;DHT22;1272;53.332;9.860;2023-08-21T09:15:57;20.70;1.00
2523;DHT22;1272;53.332;9.860;2023-08-21T09:18:24;20.80;1.00
2523;DHT22;1272;53.332;9.860;2023-08-21T09:20:49;20.90;1.00
2523;DHT22;1272;53.332;9.860;2023-08-21T09:23:16;21.00;1.00
2523;DHT22;1272;53.332;9.860;2023-08-21T09:25:45;21.10;1.00
2523;DHT22;1272;53.332;9.860;2023-08-21T09:28:13;21.10;29.50
2523;DHT22;1272;53.332;9.860;2023-08-21T09:30:50;21.10;41.50
2523;DHT22;1272;53.332;9.860;2023-08-21T09:33:23;21.20;99.90
2523;DHT22;1272;53.332;9.860;2023-08-21T09:35:51;21.30;84.30
2523;DHT22;1272;53.332;9.860;2023-08-21T09:38:18;21.40;50.00
2523;DHT22;1272;53.332;9.860;2023-08-21T09:40:54;21.50;1.00
2523;DHT22;1272;53.332;9.860;2023-08-21T09:43:23;21.60;1.00
2523;DHT22;1272;53.332;9.860;2023-08-21T09:45:54;21.70;1.00
2523;DHT22;1272;53.332;9.860;2023-08-21T09:48:30;21.80;1.00
2523;DHT22;1272;53.332;9.860;2023-08-21T09:50:56;21.90;1.00
2523;DHT22;1272;53.332;9.860;2023-08-21T09:53:23;22.10;1.00
2523;DHT22;1272;53.332;9.860;2023-08-21T09:55:53;22.10;99.90
2523;DHT22;1272;53.332;9.860;2023-08-21T09:58:20;22.20;99.90
2523;DHT22;1272;53.332;9.860;2023-08-21T10:00:48;22.30;99.90
2523;DHT22;1272;53.332;9.860;2023-08-21T10:03:18;22.50;99.90
2523;DHT22;1272;53.332;9.860;2023-08-21T10:05:45;22.60;99.90
2523;DHT22;1272;53.332;9.860;2023-08-21T10:08:15;22.70;99.90
2523;DHT22;1272;53.332;9.860;2023-08-21T10:10:41;22.80;99.90
2523;DHT22;1272;53.332;9.860;2023-08-21T10:13:07;22.90;99.90
2523;DHT22;1272;53.332;9.860;2023-08-21T10:15:35;22.90;99.90
2523;DHT22;1272;53.332;9.860;2023-08-21T10:20:47;23.20;99.90
2523;DHT22;1272;53.332;9.860;2023-08-21T10:23:30;23.40;99.90
2523;DHT22;1272;53.332;9.860;2023-08-21T10:26:01;23.50;99.90
2523;DHT22;1272;53.332;9.860;2023-08-21T10:31:32;23.60;99.90
2523;DHT22;1272;53.332;9.860;2023-08-21T10:34:00;23.70;99.90
2523;DHT22;1272;53.332;9.860;2023-08-21T10:39:22;23.60;76.60
2523;DHT22;1272;53.332;9.860;2023-08-21T10:41:55;23.70;67.10
2523;DHT22;1272;53.332;9.860;2023-08-21T10:44:34;23.80;51.30
2523;DHT22;1272;53.332;9.860;2023-08-21T10:47:32;23.90;72.20
2523;DHT22;1272;53.332;9.860;2023-08-21T10:50:01;24.20;99.90
2523;DHT22;1272;53.332;9.860;2023-08-21T10:52:38;24.40;99.90
2523;DHT22;1272;53.332;9.860;2023-08-21T10:55:09;24.60;92.00
2523;DHT22;1272;53.332;9.860;2023-08-21T10:57:35;24.70;90.20
2523;DHT22;1272;53.332;9.860;2023-08-21T11:00:06;24.80;16.60
2523;DHT22;1272;53.332;9.860;2023-08-21T11:02:35;24.90;1.00
2523;DHT22;1272;53.332;9.860;2023-08-21T11:05:02;25.00;5.00
2523;DHT22;1272;53.332;9.860;2023-08-21T11:07:29;25.00;1.00
2523;DHT22;1272;53.332;9.860;2023-08-21T11:09:56;25.10;1.00
2523;DHT22;1272;53.332;9.860;2023-08-21T11:12:24;25.10;1.00
2523;DHT22;1272;53.332;9.860;2023-08-21T11:14:50;25.10;1.00
2523;DHT22;1272;53.332;9.860;2023-08-21T11:17:16;25.30;1.00
2523;DHT22;1272;53.332;9.860;2023-08-21T11:19:43;25.40;1.00
2523;DHT22;1272;53.332;9.860;2023-08-21T11:22:10;25.50;1.00
2523;DHT22;1272;53.332;9.860;2023-08-21T11:24:48;25.50;1.00
2523;DHT22;1272;53.332;9.860;2023-08-21T11:27:15;25.60;1.00
2523;DHT22;1272;53.332;9.860;2023-08-21T11:29:46;25.70;1.00
2523;DHT22;1272;53.332;9.860;2023-08-21T11:32:22;25.80;1.00
2523;DHT22;1272;53.332;9.860;2023-08-21T11:34:53;25.90;1.00
2523;DHT22;1272;53.332;9.860;2023-08-21T11:37:21;26.00;1.00
2523;DHT22;1272;53.332;9.860;2023-08-21T11:39:51;26.20;1.00
2523;DHT22;1272;53.332;9.860;2023-08-21T11:42:18;26.20;1.00
2523;DHT22;1272;53.332;9.860;2023-08-21T11:44:47;26.30;1.00
2523;DHT22;1272;53.332;9.860;2023-08-21T11:47:13;26.30;1.00
2523;DHT22;1272;53.332;9.860;2023-08-21T11:49:40;26.40;1.00
2523;DHT22;1272;53.332;9.860;2023-08-21T11:52:12;26.40;1.00
2523;DHT22;1272;53.332;9.860;2023-08-21T11:54:39;26.50;1.00
2523;DHT22;1272;53.332;9.860;2023-08-21T11:57:12;26.70;1.00
2523;DHT22;1272;53.332;9.860;2023-08-21T11:59:38;26.70;1.00
2523;DHT22;1272;53.332;9.860;2023-08-21T12:02:21;26.80;1.00
2523;DHT22;1272;53.332;9.860;2023-08-21T12:05:13;26.80;1.00
2523;DHT22;1272;53.332;9.860;2023-08-21T12:07:39;26.90;1.00
2523;DHT22;1272;53.332;9.860;2023-08-21T12:10:05;27.00;1.00
2523;DHT22;1272;53.332;9.860;2023-08-21T12:12:30;27.10;1.00
2523;DHT22;1272;53.332;9.860;2023-08-21T12:14:56;27.20;1.00
2523;DHT22;1272;53.332;9.860;2023-08-21T12:17:22;27.30;1.00
2523;DHT22;1272;53.332;9.860;2023-08-21T12:19:48;27.40;1.00
2523;DHT22;1272;53.332;9.860;2023-08-21T12:24:40;27.60;1.00
2523;DHT22;1272;53.332;9.860;2023-08-21T12:27:06;27.70;1.00
2523;DHT22;1272;53.332;9.860;2023-08-21T12:29:32;27.70;1.00
2523;DHT22;1272;53.332;9.860;2023-08-21T12:31:58;27.70;1.00
2523;DHT22;1272;53.332;9.860;2023-08-21T12:34:24;27.70;1.00
2523;DHT22;1272;53.332;9.860;2023-08-21T12:36:52;27.90;1.00
2523;DHT22;1272;53.332;9.860;2023-08-21T12:39:18;28.00;1.00
2523;DHT22;1272;53.332;9.860;2023-08-21T12:41:44;28.00;1.00
2523;DHT22;1272;53.332;9.860;2023-08-21T12:44:10;28.00;1.00
2523;DHT22;1272;53.332;9.860;2023-08-21T12:46:36;28.10;1.00
2523;DHT22;1272;53.332;9.860;2023-08-21T12:49:02;28.20;1.00
2523;DHT22;1272;53.332;9.860;2023-08-21T12:51:28;28.20;1.00
2523;DHT22;1272;53.332;9.860;2023-08-21T12:53:54;28.40;1.00
2523;DHT22;1272;53.332;9.860;2023-08-21T12:56:20;28.30;1.00
2523;DHT22;1272;53.332;9.860;2023-08-21T12:58:46;28.30;1.00
2523;DHT22;1272;53.332;9.860;2023-08-21T13:01:12;28.20;1.00
2523;DHT22;1272;53.332;9.860;2023-08-21T13:03:38;28.20;1.00
2523;DHT22;1272;53.332;9.860;2023-08-21T13:06:04;28.30;1.00
2523;DHT22;1272;53.332;9.860;2023-08-21T13:08:30;28.20;1.00
2523;DHT22;1272;53.332;9.860;2023-08-21T13:10:56;28.40;1.00
2523;DHT22;1272;53.332;9.860;2023-08-21T13:13:21;28.40;1.00
2523;DHT22;1272;53.332;9.860;2023-08-21T13:15:47;28.50;1.00
2523;DHT22;1272;53.332;9.860;2023-08-21T13:18:13;28.50;1.00
2523;DHT22;1272;53.332;9.860;2023-08-21T13:20:41;28.50;1.00
2523;DHT22;1272;53.332;9.860;2023-08-21T13:23:07;28.50;1.00
2523;DHT22;1272;53.332;9.860;2023-08-21T13:25:34;28.60;1.00
2523;DHT22;1272;53.332;9.860;2023-08-21T13:28:01;28.70;1.00
2523;DHT22;1272;53.332;9.860;2023-08-21T13:30:27;28.80;1.00
2523;DHT22;1272;53.332;9.860;2023-08-21T13:32:52;28.90;1.00
2523;DHT22;1272;53.332;9.860;2023-08-21T13:35:19;28.90;1.00
2523;DHT22;1272;53.332;9.860;2023-08-21T13:37:46;28.80;1.00
2523;DHT22;1272;53.332;9.860;2023-08-21T13:40:12;28.90;1.00
2523;DHT22;1272;53.332;9.860;2023-08-21T13:42:40;29.00;1.00
2523;DHT22;1272;53.332;9.860;2023-08-21T13:45:08;29.10;1.00
2523;DHT22;1272;53.332;9.860;2023-08-21T13:47:35;28.90;1.00
2523;DHT22;1272;53.332;9.860;2023-08-21T13:50:01;28.90;1.00
2523;DHT22;1272;53.332;9.860;2023-08-21T13:52:27;29.00;1.00
2523;DHT22;1272;53.332;9.860;2023-08-21T13:54:52;29.20;1.00
2523;DHT22;1272;53.332;9.860;2023-08-21T13:57:18;29.30;1.00
2523;DHT22;1272;53.332;9.860;2023-08-21T13:59:44;29.40;1.00
2523;DHT22;1272;53.332;9.860;2023-08-21T14:02:09;29.50;1.00
2523;DHT22;1272;53.332;9.860;2023-08-21T14:04:35;29.40;1.00
2523;DHT22;1272;53.332;9.860;2023-08-21T14:07:01;29.20;1.00
2523;DHT22;1272;53.332;9.860;2023-08-21T14:09:26;29.10;1.00
2523;DHT22;1272;53.332;9.860;2023-08-21T14:11:52;29.00;1.00
2523;DHT22;1272;53.332;9.860;2023-08-21T14:14:18;29.00;1.00
2523;DHT22;1272;53.332;9.860;2023-08-21T14:16:43;29.00;1.00
2523;DHT22;1272;53.332;9.860;2023-08-21T14:19:09;28.90;1.00
2523;DHT22;1272;53.332;9.860;2023-08-21T14:21:35;29.00;1.00
2523;DHT22;1272;53.332;9.860;2023-08-21T14:24:00;29.10;1.00
2523;DHT22;1272;53.332;9.860;2023-08-21T14:26:26;29.10;1.00
2523;DHT22;1272;53.332;9.860;2023-08-21T14:28:52;29.20;1.00
2523;DHT22;1272;53.332;9.860;2023-08-21T14:31:18;29.50;1.00
2523;DHT22;1272;53.332;9.860;2023-08-21T14:33:44;29.60;1.00
2523;DHT22;1272;53.332;9.860;2023-08-21T14:36:09;29.50;1.00
2523;DHT22;1272;53.332;9.860;2023-08-21T14:38:35;29.60;1.00
2523;DHT22;1272;53.332;9.860;2023-08-21T14:41:00;29.60;1.00
2523;DHT22;1272;53.332;9.860;2023-08-21T14:43:26;29.70;1.00
2523;DHT22;1272;53.332;9.860;2023-08-21T14:45:53;29.70;1.00
2523;DHT22;1272;53.332;9.860;2023-08-21T14:48:19;29.90;1.00
2523;DHT22;1272;53.332;9.860;2023-08-21T14:50:45;29.70;1.00
2523;DHT22;1272;53.332;9.860;2023-08-21T14:53:10;29.80;1.00
2523;DHT22;1272;53.332;9.860;2023-08-21T14:55:36;29.70;1.00
2523;DHT22;1272;53.332;9.860;2023-08-21T14:58:02;29.80;1.00
2523;DHT22;1272;53.332;9.860;2023-08-21T15:00:32;29.90;1.00
2523;DHT22;1272;53.332;9.860;2023-08-21T15:02:58;30.00;1.00
2523;DHT22;1272;53.332;9.860;2023-08-21T15:05:26;30.00;1.00
2523;DHT22;1272;53.332;9.860;2023-08-21T15:07:51;30.10;1.00
2523;DHT22;1272;53.332;9.860;2023-08-21T15:10:19;30.10;1.00
2523;DHT22;1272;53.332;9.860;2023-08-21T15:12:45;30.00;1.00
2523;DHT22;1272;53.332;9.860;2023-08-21T15:15:11;29.90;1.00
2523;DHT22;1272;53.332;9.860;2023-08-21T15:17:37;29.90;1.00
2523;DHT22;1272;53.332;9.860;2023-08-21T15:20:03;29.80;1.00
2523;DHT22;1272;53.332;9.860;2023-08-21T15:22:32;29.70;1.00
2523;DHT22;1272;53.332;9.860;2023-08-21T15:24:58;29.50;1.00
2523;DHT22;1272;53.332;9.860;2023-08-21T15:27:24;29.30;1.00
2523;DHT22;1272;53.332;9.860;2023-08-21T15:29:50;29.20;1.00
2523;DHT22;1272;53.332;9.860;2023-08-21T15:32:16;29.20;1.00
2523;DHT22;1272;53.332;9.860;2023-08-21T15:34:41;29.20;1.00
2523;DHT22;1272;53.332;9.860;2023-08-21T15:37:07;29.20;1.00
2523;DHT22;1272;53.332;9.860;2023-08-21T15:39:34;29.20;1.00
2523;DHT22;1272;53.332;9.860;2023-08-21T15:41:59;29.10;1.00
2523;DHT22;1272;53.332;9.860;2023-08-21T15:44:25;28.80;1.00
2523;DHT22;1272;53.332;9.860;2023-08-21T15:46:51;28.50;1.00
2523;DHT22;1272;53.332;9.860;2023-08-21T15:49:16;28.20;1.00
2523;DHT22;1272;53.332;9.860;2023-08-21T15:51:45;27.90;1.00
2523;DHT22;1272;53.332;9.860;2023-08-21T15:54:12;27.60;1.00
2523;DHT22;1272;53.332;9.860;2023-08-21T15:56:38;27.60;1.00
2523;DHT22;1272;53.332;9.860;2023-08-21T15:59:03;27.60;1.00
2523;DHT22;1272;53.332;9.860;2023-08-21T16:01:29;27.70;1.00
2523;DHT22;1272;53.332;9.860;2023-08-21T16:03:55;27.90;1.00
2523;DHT22;1272;53.332;9.860;2023-08-21T16:06:20;28.00;1.00
2523;DHT22;1272;53.332;9.860;2023-08-21T16:08:46;28.10;1.00
2523;DHT22;1272;53.332;9.860;2023-08-21T16:11:12;28.20;1.00
2523;DHT22;1272;53.332;9.860;2023-08-21T16:13:37;28.30;1.00
2523;DHT22;1272;53.332;9.860;2023-08-21T16:16:03;28.30;1.00
2523;DHT22;1272;53.332;9.860;2023-08-21T16:18:29;28.30;1.00